sensor_id;sensor_type;location;lat;lon;timestamp;pressure;altitude;pressure_sealevel;temperature;humidity
78407;BME280;67692;51.074;-1.790;2023-12-28T00:01:36;99884.69;;;9.57;100.00
78407;BME280;67692;51.074;-1.790;2023-12-28T00:04:03;99870.13;;;9.56;100.00
78407;BME280;67692;51.074;-1.790;2023-12-28T00:06:29;99879.41;;;9.59;100.00
78407;BME280;67692;51.074;-1.790;2023-12-28T00:08:55;99897.38;;;9.60;100.00
78407;BME280;67692;51.074;-1.790;2023-12-28T00:11:23;99899.72;;;9.63;100.00
78407;BME280;67692;51.074;-1.790;2023-12-28T00:13:50;99893.47;;;9.66;100.00
78407;BME280;67692;51.074;-1.790;2023-12-28T00:16:17;99900.06;;;9.70;100.00
78407;BME280;67692;51.074;-1.790;2023-12-28T00:18:43;99899.00;;;9.72;100.00
78407;BME280;67692;51.074;-1.790;2023-12-28T00:21:10;99902.28;;;9.74;100.00
78407;BME280;67692;51.074;-1.790;2023-12-28T00:23:37;99901.09;;;9.78;100.00
78407;BME280;67692;51.074;-1.790;2023-12-28T00:26:03;99898.50;;;9.78;100.00
78407;BME280;67692;51.074;-1.790;2023-12-28T00:28:31;99893.78;;;9.83;100.00
78407;BME280;67692;51.074;-1.790;2023-12-28T00:30:58;99891.00;;;9.87;100.00
78407;BME280;67692;51.074;-1.790;2023-12-28T00:33:24;99885.31;;;9.93;100.00
78407;BME280;67692;51.074;-1.790;2023-12-28T00:35:51;99888.59;;;9.95;100.00
78407;BME280;67692;51.074;-1.790;2023-12-28T00:38:18;99872.84;;;9.98;100.00
78407;BME280;67692;51.074;-1.790;2023-12-28T00:40:44;99870.97;;;10.00;100.00
78407;BME280;67692;51.074;-1.790;2023-12-28T00:43:11;99884.13;;;9.97;100.00
78407;BME280;67692;51.074;-1.790;2023-12-28T00:45:39;99893.66;;;9.96;100.00
78407;BME280;67692;51.074;-1.790;2023-12-28T00:48:06;99887.22;;;9.91;100.00
78407;BME280;67692;51.074;-1.790;2023-12-28T00:50:32;99892.38;;;9.91;100.00
78407;BME280;67692;51.074;-1.790;2023-12-28T00:52:59;99888.84;;;9.92;100.00
78407;BME280;67692;51.074;-1.790;2023-12-28T00:55:26;99888.97;;;9.90;100.00
78407;BME280;67692;51.074;-1.790;2023-12-28T00:57:53;99893.31;;;9.90;100.00
78407;BME280;67692;51.074;-1.790;2023-12-28T01:00:20;99896.38;;;9.83;100.00
78407;BME280;67692;51.074;-1.790;2023-12-28T01:02:50;99921.19;;;9.86;100.00
78407;BME280;67692;51.074;-1.790;2023-12-28T01:05:18;99919.56;;;9.85;100.00
78407;BME280;67692;51.074;-1.790;2023-12-28T01:07:46;99923.78;;;9.75;100.00
78407;BME280;67692;51.074;-1.790;2023-12-28T01:10:13;99900.28;;;9.67;100.00
78407;BME280;67692;51.074;-1.790;2023-12-28T01:12:39;99907.00;;;9.58;100.00
78407;BME280;67692;51.074;-1.790;2023-12-28T01:15:07;99899.72;;;9.52;100.00
78407;BME280;67692;51.074;-1.790;2023-12-28T01:17:34;99920.50;;;9.50;100.00
78407;BME280;67692;51.074;-1.790;2023-12-28T01:20:02;99915.00;;;9.44;100.00
78407;BME280;67692;51.074;-1.790;2023-12-28T01:22:29;99910.91;;;9.41;100.00
78407;BME280;67692;51.074;-1.790;2023-12-28T01:24:55;99903.22;;;9.40;100.00
78407;BME280;67692;51.074;-1.790;2023-12-28T01:27:22;99932.84;;;9.36;100.00
78407;BME280;67692;51.074;-1.790;2023-12-28T01:29:49;99925.66;;;9.39;100.00
78407;BME280;67692;51.074;-1.790;2023-12-28T01:32:15;99905.81;;;9.40;100.00
78407;BME280;67692;51.074;-1.790;2023-12-28T01:34:42;99932.38;;;9.42;100.00
78407;BME280;67692;51.074;-1.790;2023-12-28T01:37:10;99919.94;;;9.47;100.00
78407;BME280;67692;51.074;-1.790;2023-12-28T01:39:36;99923.56;;;9.44;100.00
78407;BME280;67692;51.074;-1.790;2023-12-28T01:42:04;99911.47;;;9.45;100.00
78407;BME280;67692;51.074;-1.790;2023-12-28T01:44:30;99907.50;;;9.41;100.00
78407;BME280;67692;51.074;-1.790;2023-12-28T01:46:58;99913.34;;;9.43;100.00
78407;BME280;67692;51.074;-1.790;2023-12-28T01:49:25;99915.13;;;9.42;100.00
78407;BME280;67692;51.074;-1.790;2023-12-28T01:51:51;99903.84;;;9.43;100.00
78407;BME280;67692;51.074;-1.790;2023-12-28T01:54:19;99897.59;;;9.46;100.00
78407;BME280;67692;51.074;-1.790;2023-12-28T01:56:46;99909.34;;;9.50;100.00
78407;BME280;67692;51.074;-1.790;2023-12-28T01:59:13;99917.81;;;9.52;100.00
78407;BME280;67692;51.074;-1.790;2023-12-28T02:01:40;99922.75;;;9.55;100.00
78407;BME280;67692;51.074;-1.790;2023-12-28T02:04:07;99934.75;;;9.56;100.00
78407;BME280;67692;51.074;-1.790;2023-12-28T02:06:34;99931.78;;;9.61;100.00
78407;BME280;67692;51.074;-1.790;2023-12-28T02:09:01;99945.28;;;9.64;100.00
78407;BME280;67692;51.074;-1.790;2023-12-28T02:11:29;99945.78;;;9.69;100.00
78407;BME280;67692;51.074;-1.790;2023-12-28T02:13:56;99963.50;;;9.74;100.00
78407;BME280;67692;51.074;-1.790;2023-12-28T02:16:25;99962.44;;;9.76;100.00
78407;BME280;67692;51.074;-1.790;2023-12-28T02:18:56;99958.91;;;9.77;100.00
78407;BME280;67692;51.074;-1.790;2023-12-28T02:21:27;99953.88;;;9.76;100.00
78407;BME280;67692;51.074;-1.790;2023-12-28T02:23:54;99959.28;;;9.73;100.00
78407;BME280;67692;51.074;-1.790;2023-12-28T02:26:22;99971.72;;;9.68;100.00
78407;BME280;67692;51.074;-1.790;2023-12-28T02:28:49;99977.13;;;9.65;100.00
78407;BME280;67692;51.074;-1.790;2023-12-28T02:31:36;99966.91;;;9.63;100.00
78407;BME280;67692;51.074;-1.790;2023-12-28T02:34:06;99967.16;;;9.60;100.00
78407;BME280;67692;51.074;-1.790;2023-12-28T02:36:36;99972.19;;;9.62;100.00
78407;BME280;67692;51.074;-1.790;2023-12-28T02:39:05;99982.53;;;9.62;100.00
78407;BME280;67692;51.074;-1.790;2023-12-28T02:41:34;99977.72;;;9.57;100.00
78407;BME280;67692;51.074;-1.790;2023-12-28T02:44:01;99967.59;;;9.54;100.00
78407;BME280;67692;51.074;-1.790;2023-12-28T02:46:28;99967.28;;;9.59;100.00
78407;BME280;67692;51.074;-1.790;2023-12-28T02:48:55;99962.81;;;9.61;100.00
78407;BME280;67692;51.074;-1.790;2023-12-28T02:51:22;99965.97;;;9.64;100.00
78407;BME280;67692;51.074;-1.790;2023-12-28T02:53:49;99953.03;;;9.64;100.00
78407;BME280;67692;51.074;-1.790;2023-12-28T02:56:15;99964.78;;;9.68;100.00
78407;BME280;67692;51.074;-1.790;2023-12-28T02:58:43;99973.28;;;9.70;100.00
78407;BME280;67692;51.074;-1.790;2023-12-28T03:01:10;99964.56;;;9.71;100.00
78407;BME280;67692;51.074;-1.790;2023-12-28T03:03:37;99970.56;;;9.72;100.00
78407;BME280;67692;51.074;-1.790;2023-12-28T03:06:04;99968.81;;;9.72;100.00
78407;BME280;67692;51.074;-1.790;2023-12-28T03:08:31;99972.78;;;9.76;100.00
78407;BME280;67692;51.074;-1.790;2023-12-28T03:10:57;99957.28;;;9.76;100.00
78407;BME280;67692;51.074;-1.790;2023-12-28T03:13:24;99973.38;;;9.80;100.00
78407;BME280;67692;51.074;-1.790;2023-12-28T03:15:52;99966.31;;;9.82;100.00
78407;BME280;67692;51.074;-1.790;2023-12-28T03:18:19;99959.63;;;9.91;100.00
78407;BME280;67692;51.074;-1.790;2023-12-28T03:20:45;99965.47;;;9.93;100.00
78407;BME280;67692;51.074;-1.790;2023-12-28T03:23:12;99968.88;;;9.93;100.00
78407;BME280;67692;51.074;-1.790;2023-12-28T03:25:39;99950.66;;;9.95;100.00
78407;BME280;67692;51.074;-1.790;2023-12-28T03:28:05;99957.72;;;9.93;100.00
78407;BME280;67692;51.074;-1.790;2023-12-28T03:30:32;99962.19;;;9.91;100.00
78407;BME280;67692;51.074;-1.790;2023-12-28T03:33:00;99956.78;;;9.94;100.00
78407;BME280;67692;51.074;-1.790;2023-12-28T03:35:27;99964.53;;;9.94;100.00
78407;BME280;67692;51.074;-1.790;2023-12-28T03:37:53;99964.53;;;9.94;100.00
78407;BME280;67692;51.074;-1.790;2023-12-28T03:40:20;99965.38;;;9.94;100.00
78407;BME280;67692;51.074;-1.790;2023-12-28T03:42:47;99961.38;;;9.90;100.00
78407;BME280;67692;51.074;-1.790;2023-12-28T03:45:14;99954.00;;;9.86;100.00
78407;BME280;67692;51.074;-1.790;2023-12-28T03:47:41;99963.59;;;9.83;100.00
78407;BME280;67692;51.074;-1.790;2023-12-28T03:50:09;99967.13;;;9.82;100.00
78407;BME280;67692;51.074;-1.790;2023-12-28T03:52:36;99964.47;;;9.84;100.00
78407;BME280;67692;51.074;-1.790;2023-12-28T03:55:03;99961.03;;;9.83;100.00
78407;BME280;67692;51.074;-1.790;2023-12-28T03:57:29;99970.44;;;9.84;100.00
78407;BME280;67692;51.074;-1.790;2023-12-28T03:59:56;99972.09;;;9.86;100.00
78407;BME280;67692;51.074;-1.790;2023-12-28T04:02:23;99977.25;;;9.86;100.00
78407;BME280;67692;51.074;-1.790;2023-12-28T04:04:49;99992.78;;;9.86;100.00
78407;BME280;67692;51.074;-1.790;2023-12-28T04:07:18;99965.59;;;9.91;100.00
78407;BME280;67692;51.074;-1.790;2023-12-28T04:09:45;99969.97;;;9.91;100.00
78407;BME280;67692;51.074;-1.790;2023-12-28T04:12:11;99982.06;;;9.90;100.00
78407;BME280;67692;51.074;-1.790;2023-12-28T04:14:38;100008.75;;;9.91;100.00
78407;BME280;67692;51.074;-1.790;2023-12-28T04:17:04;99983.84;;;9.90;100.00
78407;BME280;67692;51.074;-1.790;2023-12-28T04:19:31;99964.78;;;9.91;100.00
78407;BME280;67692;51.074;-1.790;2023-12-28T04:21:58;99971.84;;;9.89;100.00
78407;BME280;67692;51.074;-1.790;2023-12-28T04:24:26;99968.56;;;9.87;100.00
78407;BME280;67692;51.074;-1.790;2023-12-28T04:26:52;99978.91;;;9.87;100.00
78407;BME280;67692;51.074;-1.790;2023-12-28T04:29:19;99976.44;;;9.85;100.00
78407;BME280;67692;51.074;-1.790;2023-12-28T04:31:46;99991.13;;;9.84;100.00
78407;BME280;67692;51.074;-1.790;2023-12-28T04:34:13;99986.88;;;9.83;100.00
78407;BME280;67692;51.074;-1.790;2023-12-28T04:36:40;99996.75;;;9.78;100.00
78407;BME280;67692;51.074;-1.790;2023-12-28T04:39:07;100008.03;;;9.77;100.00
78407;BME280;67692;51.074;-1.790;2023-12-28T04:41:35;100001.22;;;9.76;100.00
78407;BME280;67692;51.074;-1.790;2023-12-28T04:44:02;99992.41;;;9.79;100.00
78407;BME280;67692;51.074;-1.790;2023-12-28T04:46:29;99998.53;;;9.78;100.00
78407;BME280;67692;51.074;-1.790;2023-12-28T04:48:56;99993.47;;;9.76;100.00
78407;BME280;67692;51.074;-1.790;2023-12-28T04:51:22;99998.66;;;9.76;100.00
78407;BME280;67692;51.074;-1.790;2023-12-28T04:53:49;99990.88;;;9.76;100.00
78407;BME280;67692;51.074;-1.790;2023-12-28T04:56:18;100002.41;;;9.72;100.00
78407;BME280;67692;51.074;-1.790;2023-12-28T04:58:46;100006.97;;;9.69;100.00
78407;BME280;67692;51.074;-1.790;2023-12-28T05:01:13;100015.09;;;9.64;100.00
78407;BME280;67692;51.074;-1.790;2023-12-28T05:03:40;100010.63;;;9.66;100.00
78407;BME280;67692;51.074;-1.790;2023-12-28T05:06:06;100016.50;;;9.68;100.00
78407;BME280;67692;51.074;-1.790;2023-12-28T05:08:33;100018.25;;;9.68;100.00
78407;BME280;67692;51.074;-1.790;2023-12-28T05:11:00;100021.66;;;9.68;100.00
78407;BME280;67692;51.074;-1.790;2023-12-28T05:13:26;100015.34;;;9.72;100.00
78407;BME280;67692;51.074;-1.790;2023-12-28T05:15:54;100013.00;;;9.69;100.00
78407;BME280;67692;51.074;-1.790;2023-12-28T05:18:21;100028.59;;;9.68;100.00
78407;BME280;67692;51.074;-1.790;2023-12-28T05:20:47;100024.38;;;9.67;100.00
78407;BME280;67692;51.074;-1.790;2023-12-28T05:23:14;100023.34;;;9.69;100.00
78407;BME280;67692;51.074;-1.790;2023-12-28T05:25:41;100020.63;;;9.71;100.00
78407;BME280;67692;51.074;-1.790;2023-12-28T05:28:07;100027.44;;;9.72;100.00
78407;BME280;67692;51.074;-1.790;2023-12-28T05:30:34;100028.50;;;9.69;100.00
78407;BME280;67692;51.074;-1.790;2023-12-28T05:33:02;100030.03;;;9.72;100.00
78407;BME280;67692;51.074;-1.790;2023-12-28T05:35:29;100029.19;;;9.71;100.00
78407;BME280;67692;51.074;-1.790;2023-12-28T05:37:55;100025.78;;;9.71;100.00
78407;BME280;67692;51.074;-1.790;2023-12-28T05:40:22;100008.53;;;9.71;100.00
78407;BME280;67692;51.074;-1.790;2023-12-28T05:42:49;100024.03;;;9.71;100.00
78407;BME280;67692;51.074;-1.790;2023-12-28T05:45:15;100032.50;;;9.73;100.00
78407;BME280;67692;51.074;-1.790;2023-12-28T05:47:42;100018.97;;;9.70;100.00
78407;BME280;67692;51.074;-1.790;2023-12-28T05:50:10;100038.84;;;9.69;100.00
78407;BME280;67692;51.074;-1.790;2023-12-28T05:52:37;100038.59;;;9.72;100.00
78407;BME280;67692;51.074;-1.790;2023-12-28T05:55:04;100047.06;;;9.74;100.00
78407;BME280;67692;51.074;-1.790;2023-12-28T05:57:31;100044.25;;;9.77;100.00
78407;BME280;67692;51.074;-1.790;2023-12-28T05:59:57;100059.50;;;9.80;100.00
78407;BME280;67692;51.074;-1.790;2023-12-28T06:02:24;100058.81;;;9.78;100.00
78407;BME280;67692;51.074;-1.790;2023-12-28T06:04:51;100054.47;;;9.79;100.00
78407;BME280;67692;51.074;-1.790;2023-12-28T06:07:18;100049.88;;;9.82;100.00
78407;BME280;67692;51.074;-1.790;2023-12-28T06:09:45;100067.03;;;9.83;100.00
78407;BME280;67692;51.074;-1.790;2023-12-28T06:12:11;100067.16;;;9.82;100.00
78407;BME280;67692;51.074;-1.790;2023-12-28T06:14:38;100075.84;;;9.81;100.00
78407;BME280;67692;51.074;-1.790;2023-12-28T06:17:04;100074.09;;;9.81;100.00
78407;BME280;67692;51.074;-1.790;2023-12-28T06:19:31;100066.94;;;9.85;100.00
78407;BME280;67692;51.074;-1.790;2023-12-28T06:21:58;100059.75;;;9.89;100.00
78407;BME280;67692;51.074;-1.790;2023-12-28T06:24:26;100068.47;;;9.88;100.00
78407;BME280;67692;51.074;-1.790;2023-12-28T06:26:53;100066.22;;;9.83;100.00
78407;BME280;67692;51.074;-1.790;2023-12-28T06:29:19;100072.19;;;9.83;100.00
78407;BME280;67692;51.074;-1.790;2023-12-28T06:31:46;100073.25;;;9.81;100.00
78407;BME280;67692;51.074;-1.790;2023-12-28T06:34:13;100076.91;;;9.78;100.00
78407;BME280;67692;51.074;-1.790;2023-12-28T06:36:40;100081.38;;;9.76;100.00
78407;BME280;67692;51.074;-1.790;2023-12-28T06:39:06;100087.00;;;9.81;100.00
78407;BME280;67692;51.074;-1.790;2023-12-28T06:41:35;100078.44;;;9.81;100.00
78407;BME280;67692;51.074;-1.790;2023-12-28T06:44:01;100084.44;;;9.81;100.00
78407;BME280;67692;51.074;-1.790;2023-12-28T06:46:28;100083.50;;;9.82;100.00
78407;BME280;67692;51.074;-1.790;2023-12-28T06:48:54;100092.41;;;9.78;100.00
78407;BME280;67692;51.074;-1.790;2023-12-28T06:51:23;100092.53;;;9.77;100.00
78407;BME280;67692;51.074;-1.790;2023-12-28T06:53:49;100094.41;;;9.75;100.00
78407;BME280;67692;51.074;-1.790;2023-12-28T06:56:16;100103.13;;;9.74;100.00
78407;BME280;67692;51.074;-1.790;2023-12-28T06:58:45;100105.94;;;9.71;100.00
78407;BME280;67692;51.074;-1.790;2023-12-28T07:01:11;100092.28;;;9.69;100.00
78407;BME280;67692;51.074;-1.790;2023-12-28T07:03:38;100089.59;;;9.70;100.00
78407;BME280;67692;51.074;-1.790;2023-12-28T07:06:05;100085.38;;;9.69;100.00
78407;BME280;67692;51.074;-1.790;2023-12-28T07:08:32;100085.38;;;9.69;100.00
78407;BME280;67692;51.074;-1.790;2023-12-28T07:10:58;100099.47;;;9.76;100.00
78407;BME280;67692;51.074;-1.790;2023-12-28T07:13:25;100091.59;;;9.78;100.00
78407;BME280;67692;51.074;-1.790;2023-12-28T07:15:53;100093.94;;;9.81;100.00
78407;BME280;67692;51.074;-1.790;2023-12-28T07:18:20;100097.34;;;9.81;100.00
78407;BME280;67692;51.074;-1.790;2023-12-28T07:20:46;100093.94;;;9.81;100.00
78407;BME280;67692;51.074;-1.790;2023-12-28T07:23:13;100092.41;;;9.78;100.00
78407;BME280;67692;51.074;-1.790;2023-12-28T07:25:40;100083.03;;;9.77;100.00
78407;BME280;67692;51.074;-1.790;2023-12-28T07:28:07;100089.84;;;9.78;100.00
78407;BME280;67692;51.074;-1.790;2023-12-28T07:30:33;100100.19;;;9.78;100.00
78407;BME280;67692;51.074;-1.790;2023-12-28T07:33:01;100092.41;;;9.78;100.00
78407;BME280;67692;51.074;-1.790;2023-12-28T07:35:28;100088.56;;;9.84;100.00
78407;BME280;67692;51.074;-1.790;2023-12-28T07:37:54;100092.69;;;9.87;100.00
78407;BME280;67692;51.074;-1.790;2023-12-28T07:40:21;100091.63;;;9.89;100.00
78407;BME280;67692;51.074;-1.790;2023-12-28T07:42:48;100098.19;;;9.93;100.00
78407;BME280;67692;51.074;-1.790;2023-12-28T07:45:14;100083.63;;;9.92;100.00
78407;BME280;67692;51.074;-1.790;2023-12-28T07:47:42;100080.47;;;9.89;100.00
78407;BME280;67692;51.074;-1.790;2023-12-28T07:50:11;100083.16;;;9.87;100.00
78407;BME280;67692;51.074;-1.790;2023-12-28T07:52:38;100102.19;;;9.86;100.00
78407;BME280;67692;51.074;-1.790;2023-12-28T07:55:05;100110.75;;;9.75;100.00
78407;BME280;67692;51.074;-1.790;2023-12-28T07:57:32;100114.97;;;9.65;100.00
78407;BME280;67692;51.074;-1.790;2023-12-28T07:59:59;100117.50;;;9.54;100.00
78407;BME280;67692;51.074;-1.790;2023-12-28T08:02:26;100112.81;;;9.48;100.00
78407;BME280;67692;51.074;-1.790;2023-12-28T08:04:53;100106.66;;;9.38;100.00
78407;BME280;67692;51.074;-1.790;2023-12-28T08:07:21;100121.56;;;9.34;100.00
78407;BME280;67692;51.074;-1.790;2023-12-28T08:09:47;100132.94;;;9.32;100.00
78407;BME280;67692;51.074;-1.790;2023-12-28T08:12:14;100119.56;;;9.27;100.00
78407;BME280;67692;51.074;-1.790;2023-12-28T08:14:41;100126.78;;;9.21;100.00
78407;BME280;67692;51.074;-1.790;2023-12-28T08:17:07;100131.34;;;9.18;100.00
78407;BME280;67692;51.074;-1.790;2023-12-28T08:19:34;100135.00;;;9.15;100.00
78407;BME280;67692;51.074;-1.790;2023-12-28T08:22:01;100132.53;;;9.14;100.00
78407;BME280;67692;51.074;-1.790;2023-12-28T08:24:29;100131.91;;;9.10;100.00
78407;BME280;67692;51.074;-1.790;2023-12-28T08:26:56;100130.13;;;9.11;100.00
78407;BME280;67692;51.074;-1.790;2023-12-28T08:32:45;100143.13;;;9.22;100.00
78407;BME280;67692;51.074;-1.790;2023-12-28T08:35:24;100129.16;;;9.24;100.00
78407;BME280;67692;51.074;-1.790;2023-12-28T08:38:25;100129.06;;;9.26;100.00
78407;BME280;67692;51.074;-1.790;2023-12-28T08:40:53;100141.13;;;9.25;100.00
78407;BME280;67692;51.074;-1.790;2023-12-28T08:43:28;100140.94;;;9.29;100.00
78407;BME280;67692;51.074;-1.790;2023-12-28T08:46:24;100143.88;;;9.35;100.00
78407;BME280;67692;51.074;-1.790;2023-12-28T09:01:23;100157.66;;;9.47;100.00
78407;BME280;67692;51.074;-1.790;2023-12-28T09:04:06;100163.53;;;9.49;100.00
78407;BME280;67692;51.074;-1.790;2023-12-28T09:10:20;100171.47;;;9.59;100.00
78407;BME280;67692;51.074;-1.790;2023-12-28T09:13:16;100167.47;;;9.66;100.00
78407;BME280;67692;51.074;-1.790;2023-12-28T09:16:25;100173.16;;;9.71;100.00
78407;BME280;67692;51.074;-1.790;2023-12-28T09:18:53;100175.41;;;9.75;100.00
78407;BME280;67692;51.074;-1.790;2023-12-28T09:21:20;100163.06;;;9.79;100.00
78407;BME280;67692;51.074;-1.790;2023-12-28T09:23:47;100161.19;;;9.81;100.00
78407;BME280;67692;51.074;-1.790;2023-12-28T09:26:14;100171.09;;;9.87;100.00
78407;BME280;67692;51.074;-1.790;2023-12-28T09:28:40;100175.44;;;9.87;100.00
78407;BME280;67692;51.074;-1.790;2023-12-28T09:31:07;100170.03;;;9.90;100.00
78407;BME280;67692;51.074;-1.790;2023-12-28T09:33:35;100158.84;;;9.89;100.00
78407;BME280;67692;51.074;-1.790;2023-12-28T09:36:03;100158.84;;;9.89;100.00
78407;BME280;67692;51.074;-1.790;2023-12-28T09:38:30;100158.75;;;9.91;100.00
78407;BME280;67692;51.074;-1.790;2023-12-28T09:40:58;100156.97;;;9.91;100.00
78407;BME280;67692;51.074;-1.790;2023-12-28T09:43:31;100153.84;;;9.99;100.00
78407;BME280;67692;51.074;-1.790;2023-12-28T09:46:06;100157.72;;;10.04;100.00
78407;BME280;67692;51.074;-1.790;2023-12-28T09:48:34;100152.31;;;10.07;100.00
78407;BME280;67692;51.074;-1.790;2023-12-28T09:51:01;100157.47;;;10.07;100.00
78407;BME280;67692;51.074;-1.790;2023-12-28T09:53:27;100137.47;;;10.09;100.00
78407;BME280;67692;51.074;-1.790;2023-12-28T09:55:54;100155.69;;;9.97;100.00
78407;BME280;67692;51.074;-1.790;2023-12-28T09:58:21;100184.00;;;9.87;100.00
78407;BME280;67692;51.074;-1.790;2023-12-28T10:00:49;100190.91;;;9.75;100.00
78407;BME280;67692;51.074;-1.790;2023-12-28T10:03:17;100171.19;;;9.50;100.00
78407;BME280;67692;51.074;-1.790;2023-12-28T10:05:45;100169.72;;;9.35;100.00
78407;BME280;67692;51.074;-1.790;2023-12-28T10:08:13;100178.56;;;9.20;100.00
78407;BME280;67692;51.074;-1.790;2023-12-28T10:10:39;100167.63;;;9.16;100.00
78407;BME280;67692;51.074;-1.790;2023-12-28T10:13:06;100167.63;;;9.16;100.00
78407;BME280;67692;51.074;-1.790;2023-12-28T10:15:35;100163.19;;;9.18;100.00
78407;BME280;67692;51.074;-1.790;2023-12-28T10:18:03;100154.72;;;9.16;100.00
78407;BME280;67692;51.074;-1.790;2023-12-28T10:20:30;100165.66;;;9.20;100.00
78407;BME280;67692;51.074;-1.790;2023-12-28T10:22:59;100165.00;;;9.29;100.00
78407;BME280;67692;51.074;-1.790;2023-12-28T10:25:26;100163.91;;;9.44;100.00
78407;BME280;67692;51.074;-1.790;2023-12-28T10:27:53;100158.78;;;9.56;100.00
78407;BME280;67692;51.074;-1.790;2023-12-28T10:30:20;100154.78;;;9.63;100.00
78407;BME280;67692;51.074;-1.790;2023-12-28T10:32:47;100151.66;;;9.70;100.00
78407;BME280;67692;51.074;-1.790;2023-12-28T10:35:13;100150.72;;;9.82;100.00
78407;BME280;67692;51.074;-1.790;2023-12-28T10:37:41;100151.34;;;9.86;100.00
78407;BME280;67692;51.074;-1.790;2023-12-28T10:40:13;100151.22;;;9.88;100.00
78407;BME280;67692;51.074;-1.790;2023-12-28T10:42:49;100146.28;;;9.84;100.00
78407;BME280;67692;51.074;-1.790;2023-12-28T10:45:18;100150.28;;;9.89;100.00
78407;BME280;67692;51.074;-1.790;2023-12-28T10:47:54;100151.81;;;9.91;100.00
78407;BME280;67692;51.074;-1.790;2023-12-28T10:50:26;100147.94;;;9.97;100.00
78407;BME280;67692;51.074;-1.790;2023-12-28T10:53:00;100145.13;;;10.00;100.00
78407;BME280;67692;51.074;-1.790;2023-12-28T10:55:36;100137.00;;;10.04;100.00
78407;BME280;67692;51.074;-1.790;2023-12-28T10:58:10;100129.38;;;10.03;100.00
78407;BME280;67692;51.074;-1.790;2023-12-28T11:00:41;100127.22;;;9.97;100.00
78407;BME280;67692;51.074;-1.790;2023-12-28T11:03:11;100105.59;;;9.98;100.00
78407;BME280;67692;51.074;-1.790;2023-12-28T11:05:45;100111.94;;;9.94;100.00
78407;BME280;67692;51.074;-1.790;2023-12-28T11:08:14;100114.78;;;9.91;100.00
78407;BME280;67692;51.074;-1.790;2023-12-28T11:10:43;100104.44;;;9.91;100.00
78407;BME280;67692;51.074;-1.790;2023-12-28T11:13:10;100133.13;;;9.88;100.00
78407;BME280;67692;51.074;-1.790;2023-12-28T11:15:38;100125.34;;;9.88;100.00
78407;BME280;67692;51.074;-1.790;2023-12-28T11:18:04;100124.31;;;9.90;100.00
78407;BME280;67692;51.074;-1.790;2023-12-28T11:20:31;100114.31;;;9.97;100.00
78407;BME280;67692;51.074;-1.790;2023-12-28T11:22:59;100116.69;;;10.00;100.00
78407;BME280;67692;51.074;-1.790;2023-12-28T11:25:30;100123.47;;;10.12;100.00
78407;BME280;67692;51.074;-1.790;2023-12-28T11:27:59;100096.69;;;10.13;100.00
78407;BME280;67692;51.074;-1.790;2023-12-28T11:30:27;100105.88;;;10.17;100.00
78407;BME280;67692;51.074;-1.790;2023-12-28T11:32:56;100101.50;;;10.18;100.00
78407;BME280;67692;51.074;-1.790;2023-12-28T11:35:33;100107.97;;;10.12;100.00
78407;BME280;67692;51.074;-1.790;2023-12-28T11:38:00;100095.28;;;10.09;100.00
78407;BME280;67692;51.074;-1.790;2023-12-28T11:40:29;100104.91;;;10.07;100.00
78407;BME280;67692;51.074;-1.790;2023-12-28T11:42:55;100109.38;;;10.05;100.00
78407;BME280;67692;51.074;-1.790;2023-12-28T11:45:23;100092.69;;;10.09;100.00
78407;BME280;67692;51.074;-1.790;2023-12-28T11:47:58;100103.97;;;10.08;100.00
78407;BME280;67692;51.074;-1.790;2023-12-28T11:50:26;100073.75;;;10.08;100.00
78407;BME280;67692;51.074;-1.790;2023-12-28T11:52:52;100082.34;;;10.09;100.00
78407;BME280;67692;51.074;-1.790;2023-12-28T11:55:21;100086.34;;;10.13;100.00
78407;BME280;67692;51.074;-1.790;2023-12-28T11:57:48;100075.06;;;10.14;100.00
78407;BME280;67692;51.074;-1.790;2023-12-28T12:00:15;100080.94;;;10.16;100.00
78407;BME280;67692;51.074;-1.790;2023-12-28T12:02:44;100069.53;;;10.19;100.00
78407;BME280;67692;51.074;-1.790;2023-12-28T12:05:11;100077.41;;;10.17;100.00
78407;BME280;67692;51.074;-1.790;2023-12-28T12:07:38;100066.72;;;10.22;100.00
78407;BME280;67692;51.074;-1.790;2023-12-28T12:10:05;100070.38;;;10.30;100.00
78407;BME280;67692;51.074;-1.790;2023-12-28T12:12:32;100059.53;;;10.36;100.00
78407;BME280;67692;51.074;-1.790;2023-12-28T12:14:59;100057.44;;;10.41;100.00
78407;BME280;67692;51.074;-1.790;2023-12-28T12:17:26;100066.47;;;10.47;100.00
78407;BME280;67692;51.074;-1.790;2023-12-28T12:19:54;100047.84;;;10.53;100.00
78407;BME280;67692;51.074;-1.790;2023-12-28T12:22:23;100046.69;;;10.57;100.00
78407;BME280;67692;51.074;-1.790;2023-12-28T12:24:50;100048.91;;;10.62;100.00
78407;BME280;67692;51.074;-1.790;2023-12-28T12:27:18;100055.59;;;10.64;100.00
78407;BME280;67692;51.074;-1.790;2023-12-28T12:29:45;100039.13;;;10.65;100.00
78407;BME280;67692;51.074;-1.790;2023-12-28T12:32:12;100027.69;;;10.68;100.00
78407;BME280;67692;51.074;-1.790;2023-12-28T12:34:39;100036.16;;;10.70;100.00
78407;BME280;67692;51.074;-1.790;2023-12-28T12:37:07;100038.53;;;10.73;100.00
78407;BME280;67692;51.074;-1.790;2023-12-28T12:39:34;100046.16;;;10.75;100.00
78407;BME280;67692;51.074;-1.790;2023-12-28T12:42:01;100054.00;;;10.84;100.00
78407;BME280;67692;51.074;-1.790;2023-12-28T12:44:28;100055.41;;;10.88;100.00
78407;BME280;67692;51.074;-1.790;2023-12-28T12:46:58;100056.38;;;10.87;100.00
78407;BME280;67692;51.074;-1.790;2023-12-28T12:49:25;100056.84;;;10.81;100.00
78407;BME280;67692;51.074;-1.790;2023-12-28T12:51:52;100049.44;;;10.77;100.00
78407;BME280;67692;51.074;-1.790;2023-12-28T12:54:20;100047.69;;;10.77;100.00
78407;BME280;67692;51.074;-1.790;2023-12-28T12:56:47;100054.50;;;10.78;100.00
78407;BME280;67692;51.074;-1.790;2023-12-28T12:59:16;100045.78;;;10.79;100.00
78407;BME280;67692;51.074;-1.790;2023-12-28T13:01:43;100050.59;;;10.84;100.00
78407;BME280;67692;51.074;-1.790;2023-12-28T13:04:10;100047.06;;;10.85;100.00
78407;BME280;67692;51.074;-1.790;2023-12-28T13:06:36;100044.38;;;10.86;100.00